Time;durP1;ratioP1;P1;durP2;ratioP2;P2;SDS_P1;SDS_P2;PMS_P1;PMS_P2;Temp;Humidity;BMP_temperature;BMP_pressure;BME280_temperature;BME280_humidity;BME280_pressure;Samples;Min_cycle;Max_cycle;Signal;HPM_P1;HPM_P2
2023/04/29 00:02:08;;;;;;;2.57;0.80;;;9.20;99.90;;;;;;4955973;28;20042;-77
2023/04/29 00:04:34;;;;;;;1.70;0.93;;;9.20;99.90;;;;;;4956500;28;20035;-77
2023/04/29 00:06:59;;;;;;;1.10;0.80;;;9.20;99.90;;;;;;4955586;28;20084;-77
2023/04/29 00:09:25;;;;;;;2.40;0.90;;;9.20;99.90;;;;;;4955180;28;20031;-77
2023/04/29 00:11:51;;;;;;;2.83;0.80;;;9.20;99.90;;;;;;4955257;28;20035;-77
2023/04/29 00:14:16;;;;;;;0.83;0.70;;;9.20;99.90;;;;;;4955715;28;20027;-77
2023/04/29 00:16:42;;;;;;;1.53;0.70;;;9.10;99.90;;;;;;4955917;28;21526;-77
2023/04/29 00:19:07;;;;;;;1.00;0.70;;;9.10;99.90;;;;;;4938736;28;20443;-77
2023/04/29 00:21:33;;;;;;;2.80;0.90;;;9.10;99.90;;;;;;4955134;28;20130;-77
2023/04/29 00:23:59;;;;;;;1.20;0.90;;;9.10;99.90;;;;;;4956064;28;20035;-77
2023/04/29 00:26:25;;;;;;;3.93;1.03;;;9.10;99.90;;;;;;4955287;28;20039;-77
2023/04/29 00:28:50;;;;;;;1.07;0.70;;;9.20;99.90;;;;;;4955374;28;20031;-77
2023/04/29 00:31:16;;;;;;;1.03;0.90;;;9.20;99.90;;;;;;4954727;28;20035;-77
2023/04/29 00:33:41;;;;;;;0.80;0.80;;;9.20;99.90;;;;;;4955100;28;20113;-77
2023/04/29 00:36:07;;;;;;;0.87;0.77;;;9.20;99.90;;;;;;4955252;28;20165;-77
2023/04/29 00:38:33;;;;;;;2.77;0.97;;;9.20;99.90;;;;;;4954749;28;20042;-77
2023/04/29 00:40:59;;;;;;;1.23;0.90;;;9.20;99.90;;;;;;4954508;28;20027;-77
2023/04/29 00:43:24;;;;;;;0.97;0.83;;;9.20;99.90;;;;;;4955214;28;20035;-77
2023/04/29 00:45:50;;;;;;;1.10;0.97;;;9.30;99.90;;;;;;4955843;28;20031;-77
2023/04/29 00:48:16;;;;;;;1.47;0.97;;;9.30;99.90;;;;;;4955116;28;20031;-77
2023/04/29 00:50:42;;;;;;;1.53;0.97;;;9.30;99.90;;;;;;4954262;28;20035;-77
2023/04/29 00:53:11;;;;;;;1.00;0.90;;;9.30;99.90;;;;;;4954749;28;20576;-77
2023/04/29 00:55:37;;;;;;;1.87;1.10;;;9.30;99.90;;;;;;4954841;28;20049;-77
2023/04/29 00:58:03;;;;;;;2.20;1.13;;;9.30;99.90;;;;;;4955034;28;20039;-77
2023/04/29 01:00:29;;;;;;;1.10;1.00;;;9.30;99.90;;;;;;4954338;28;20074;-77
2023/04/29 01:02:56;;;;;;;2.47;1.00;;;9.30;99.90;;;;;;4954753;28;20487;-76
2023/04/29 01:05:23;;;;;;;1.90;1.33;;;9.30;99.90;;;;;;4955255;28;20035;-77
2023/04/29 01:08:02;;;;;;;1.83;1.20;;;9.30;99.90;;;;;;4954889;28;20046;-77
2023/04/29 01:10:32;;;;;;;1.10;1.00;;;9.30;99.90;;;;;;4954006;28;20031;-77
2023/04/29 01:13:16;;;;;;;1.37;1.00;;;9.40;99.90;;;;;;4955004;28;20031;-77
2023/04/29 01:16:04;;;;;;;1.30;1.20;;;9.40;99.90;;;;;;4954630;28;20497;-77
2023/04/29 01:18:44;;;;;;;3.50;1.30;;;9.40;99.90;;;;;;4954258;28;20019;-77
2023/04/29 01:21:10;;;;;;;1.10;1.00;;;9.40;99.90;;;;;;4954854;28;21387;-77
2023/04/29 01:23:35;;;;;;;1.50;1.20;;;9.40;99.90;;;;;;4954702;28;20055;-77
2023/04/29 01:26:01;;;;;;;1.80;1.30;;;9.40;99.90;;;;;;4954288;28;20616;-76
2023/04/29 01:28:29;;;;;;;2.93;1.40;;;9.40;99.90;;;;;;4954397;28;20085;-77
2023/04/29 01:31:14;;;;;;;2.17;1.50;;;9.40;99.90;;;;;;4953522;28;20027;-77
2023/04/29 01:33:58;;;;;;;1.53;1.20;;;9.40;99.90;;;;;;4954248;28;20078;-77
2023/04/29 01:36:43;;;;;;;2.30;1.37;;;9.40;99.90;;;;;;4954312;28;20487;-77
2023/04/29 01:39:11;;;;;;;2.00;1.53;;;9.40;99.90;;;;;;4954398;28;20063;-77
2023/04/29 01:41:44;;;;;;;2.07;1.50;;;9.30;99.90;;;;;;4953917;28;20302;-77
2023/04/29 01:44:23;;;;;;;2.70;1.60;;;9.30;99.90;;;;;;4954266;28;20503;-77
2023/04/29 01:46:52;;;;;;;3.37;1.73;;;9.30;99.90;;;;;;4953712;28;20039;-77
2023/04/29 01:49:24;;;;;;;2.97;1.83;;;9.20;99.90;;;;;;4953528;28;20488;-77
2023/04/29 01:51:50;;;;;;;3.53;2.00;;;9.20;99.90;;;;;;4953354;28;20146;-77
2023/04/29 01:54:15;;;;;;;4.17;2.10;;;9.20;99.90;;;;;;4953768;28;20487;-77
2023/04/29 01:56:41;;;;;;;4.03;2.20;;;9.20;99.90;;;;;;4954081;28;20043;-77
2023/04/29 01:59:07;;;;;;;3.17;2.37;;;9.20;99.90;;;;;;4954134;28;20038;-77
2023/04/29 02:01:33;;;;;;;3.20;2.10;;;9.20;99.90;;;;;;4953250;28;20026;-77
2023/04/29 02:03:58;;;;;;;2.53;2.20;;;9.20;99.90;;;;;;4953967;28;20045;-77
2023/04/29 02:06:25;;;;;;;3.97;1.93;;;9.20;99.90;;;;;;4954139;28;20457;-77
2023/04/29 02:08:50;;;;;;;3.07;2.00;;;9.20;99.90;;;;;;4953593;28;20075;-77
2023/04/29 02:11:16;;;;;;;4.23;2.30;;;9.30;99.90;;;;;;4953009;28;20118;-77
2023/04/29 02:13:42;;;;;;;2.80;2.20;;;9.30;99.90;;;;;;4953793;28;20038;-77
2023/04/29 02:16:12;;;;;;;3.33;2.30;;;9.30;99.90;;;;;;4953902;28;20043;-76
2023/04/29 02:18:38;;;;;;;5.80;2.17;;;9.40;99.90;;;;;;4954001;28;20487;-77
2023/04/29 02:21:04;;;;;;;2.40;2.13;;;9.50;99.90;;;;;;4954139;28;20049;-77
2023/04/29 02:23:30;;;;;;;4.43;2.30;;;9.50;99.90;;;;;;4953492;28;20011;-76
2023/04/29 02:25:56;;;;;;;2.50;1.93;;;9.50;99.90;;;;;;4954288;28;20035;-77
2023/04/29 02:28:22;;;;;;;3.70;2.10;;;9.60;99.90;;;;;;4953783;28;20495;-77
2023/04/29 02:30:48;;;;;;;2.93;2.33;;;9.60;99.90;;;;;;4953663;28;20035;-76
2023/04/29 02:33:15;;;;;;;4.43;2.47;;;9.70;99.90;;;;;;4953916;28;20037;-77
2023/04/29 02:35:40;;;;;;;3.20;2.10;;;9.80;99.90;;;;;;4953971;28;20159;-76
2023/04/29 02:38:06;;;;;;;3.60;2.47;;;9.80;99.90;;;;;;4954045;28;20035;-77
2023/04/29 02:40:32;;;;;;;2.80;2.40;;;9.80;99.90;;;;;;4953355;28;20115;-77
2023/04/29 02:42:57;;;;;;;3.57;2.10;;;9.80;99.90;;;;;;4953053;28;20042;-77
2023/04/29 02:45:23;;;;;;;3.20;2.40;;;9.90;99.90;;;;;;4953797;28;21341;-76
2023/04/29 02:47:48;;;;;;;6.53;2.73;;;9.90;99.90;;;;;;4953302;28;20555;-77
2023/04/29 02:50:14;;;;;;;3.67;2.13;;;9.90;99.90;;;;;;4953110;28;20022;-77
2023/04/29 02:52:40;;;;;;;3.53;2.40;;;9.90;99.90;;;;;;4953872;28;20042;-77
2023/04/29 02:55:07;;;;;;;2.73;2.30;;;10.00;99.90;;;;;;4953192;28;20043;-78
2023/04/29 02:57:32;;;;;;;4.23;2.43;;;10.00;99.90;;;;;;4953723;28;20022;-76
2023/04/29 02:59:58;;;;;;;2.80;2.30;;;10.00;99.90;;;;;;4952914;28;20034;-77
2023/04/29 03:02:24;;;;;;;2.80;2.33;;;10.00;99.90;;;;;;4954542;28;20050;-77
2023/04/29 03:04:50;;;;;;;5.07;2.17;;;10.00;99.90;;;;;;4957480;28;20165;-77
2023/04/29 03:07:16;;;;;;;4.23;2.50;;;9.90;99.90;;;;;;4956904;28;20163;-77
2023/04/29 03:09:41;;;;;;;3.97;2.43;;;10.00;99.90;;;;;;4956778;28;21332;-77
2023/04/29 03:12:07;;;;;;;2.97;2.40;;;10.00;99.90;;;;;;4956673;28;20038;-77
2023/04/29 03:14:33;;;;;;;2.60;2.20;;;9.90;99.90;;;;;;4957534;28;20023;-77
2023/04/29 03:16:58;;;;;;;4.03;2.40;;;9.90;99.90;;;;;;4957031;28;20050;-77
2023/04/29 03:19:24;;;;;;;6.70;2.30;;;9.90;99.90;;;;;;4956648;28;20482;-77
2023/04/29 03:21:49;;;;;;;3.00;2.10;;;9.90;99.90;;;;;;4957589;28;20037;-77
2023/04/29 03:24:15;;;;;;;4.40;2.20;;;9.90;99.90;;;;;;4957514;28;20030;-77
2023/04/29 03:26:41;;;;;;;5.33;2.23;;;9.90;99.90;;;;;;4957134;28;20499;-77
2023/04/29 03:29:07;;;;;;;3.83;2.27;;;9.90;99.90;;;;;;4956572;28;20026;-77
2023/04/29 03:31:33;;;;;;;2.80;2.10;;;9.90;99.90;;;;;;4956379;28;20042;-77
2023/04/29 03:33:58;;;;;;;4.77;2.60;;;9.80;99.90;;;;;;4956440;28;20509;-77
2023/04/29 03:36:24;;;;;;;3.97;2.30;;;9.80;99.90;;;;;;4956261;28;20051;-77
2023/04/29 03:38:50;;;;;;;2.70;2.17;;;9.80;99.90;;;;;;4956723;28;20202;-77
2023/04/29 03:41:16;;;;;;;6.80;2.20;;;9.80;99.90;;;;;;4956761;28;20480;-77
2023/04/29 03:43:44;;;;;;;3.50;2.40;;;9.70;99.90;;;;;;4956500;28;20082;-77
2023/04/29 03:46:10;;;;;;;3.70;2.83;;;9.70;99.90;;;;;;4956255;28;20046;-77
2023/04/29 03:48:36;;;;;;;3.47;2.40;;;9.70;99.90;;;;;;4956249;28;20035;-77
2023/04/29 03:51:02;;;;;;;4.80;2.47;;;9.80;99.90;;;;;;4954997;28;20034;-77
2023/04/29 03:53:28;;;;;;;5.77;2.40;;;9.80;99.90;;;;;;4955977;28;20030;-77
2023/04/29 03:55:53;;;;;;;5.53;2.40;;;9.80;99.90;;;;;;4956352;28;20051;-77
2023/04/29 03:58:19;;;;;;;2.90;2.33;;;9.80;99.90;;;;;;4955935;28;20415;-77
2023/04/29 04:00:44;;;;;;;2.97;2.30;;;9.80;99.90;;;;;;4955827;28;20038;-77
2023/04/29 04:03:10;;;;;;;3.90;2.50;;;9.80;99.90;;;;;;4956222;28;20027;-77
2023/04/29 04:05:35;;;;;;;3.40;3.00;;;9.70;99.90;;;;;;4956794;28;20054;-77
2023/04/29 04:08:01;;;;;;;3.10;2.57;;;9.70;99.90;;;;;;4955934;28;20098;-76
2023/04/29 04:10:27;;;;;;;3.63;2.63;;;9.70;99.90;;;;;;4955868;28;20053;-77
2023/04/29 04:12:52;;;;;;;4.87;2.90;;;9.70;99.90;;;;;;4955549;28;20041;-77
2023/04/29 04:15:18;;;;;;;3.90;2.77;;;9.70;99.90;;;;;;4955465;28;20046;-77
2023/04/29 04:17:44;;;;;;;4.33;2.83;;;9.70;99.90;;;;;;4956263;28;20041;-77
2023/04/29 04:20:10;;;;;;;3.20;2.60;;;9.80;99.90;;;;;;4955732;28;20062;-77
2023/04/29 04:22:36;;;;;;;5.20;2.90;;;9.80;99.90;;;;;;4955762;28;20185;-83
2023/04/29 04:25:03;;;;;;;3.00;2.67;;;9.80;99.90;;;;;;4953771;28;20407;-77
2023/04/29 04:27:29;;;;;;;3.23;2.70;;;9.80;99.90;;;;;;4954004;28;20522;-76
2023/04/29 04:29:54;;;;;;;4.47;2.67;;;9.80;99.90;;;;;;4955201;28;20019;-78
2023/04/29 04:32:23;;;;;;;3.27;2.67;;;9.90;99.90;;;;;;4955901;28;20031;-76
2023/04/29 04:34:49;;;;;;;3.20;2.80;;;9.90;99.90;;;;;;4954906;28;20046;-77
2023/04/29 04:37:15;;;;;;;4.07;2.97;;;10.00;99.90;;;;;;4956742;28;20158;-78
2023/04/29 04:39:40;;;;;;;3.67;2.83;;;10.00;99.90;;;;;;4955129;28;20106;-79
2023/04/29 04:42:06;;;;;;;3.80;2.83;;;10.10;99.90;;;;;;4955545;28;20388;-78
2023/04/29 04:44:32;;;;;;;4.40;3.13;;;10.10;99.90;;;;;;4955147;28;20501;-78
2023/04/29 04:47:00;;;;;;;4.97;2.50;;;10.10;99.90;;;;;;4955116;28;20065;-78
2023/04/29 04:49:26;;;;;;;3.53;2.87;;;10.20;99.90;;;;;;4955137;28;20027;-80
2023/04/29 04:51:52;;;;;;;4.67;2.60;;;10.20;99.90;;;;;;4957472;28;20054;-79
2023/04/29 04:54:18;;;;;;;5.93;3.17;;;10.30;99.90;;;;;;4957998;28;20031;-79
2023/04/29 04:56:43;;;;;;;5.47;3.23;;;10.30;99.90;;;;;;4958048;28;20050;-79
2023/04/29 04:59:09;;;;;;;3.53;3.00;;;10.30;99.90;;;;;;4958330;28;20146;-79
2023/04/29 05:01:35;;;;;;;4.50;3.10;;;10.40;99.90;;;;;;4958090;28;20030;-80
2023/04/29 05:04:01;;;;;;;3.67;3.03;;;10.40;99.90;;;;;;4957613;28;20764;-79
2023/04/29 05:06:27;;;;;;;4.70;3.20;;;10.50;99.90;;;;;;4957455;28;20045;-79
2023/04/29 05:08:52;;;;;;;4.95;3.30;;;10.50;99.90;;;;;;4958325;28;20621;-79
2023/04/29 05:11:22;;;;;;;5.10;3.13;;;10.60;99.90;;;;;;4956701;28;20943;-80
2023/04/29 05:13:48;;;;;;;5.13;3.30;;;10.70;99.90;;;;;;4954760;28;20113;-74
2023/04/29 05:16:14;;;;;;;4.10;3.40;;;10.70;99.90;;;;;;4956067;28;20055;-80
2023/04/29 05:18:39;;;;;;;5.13;3.17;;;10.80;99.90;;;;;;4958420;28;20517;-79
2023/04/29 05:21:05;;;;;;;3.83;3.10;;;10.90;99.90;;;;;;4957913;28;20027;-76
2023/04/29 05:23:30;;;;;;;6.60;3.40;;;11.00;99.90;;;;;;4954174;28;20395;-74
2023/04/29 05:25:56;;;;;;;6.00;3.55;;;11.10;99.90;;;;;;4954825;28;20026;-73
2023/04/29 05:28:22;;;;;;;15.68;5.22;;;11.20;99.90;;;;;;4955204;28;20027;-79
2023/04/29 05:30:50;;;;;;;3.63;2.93;;;11.20;99.90;;;;;;4954813;28;20042;-78
2023/04/29 05:33:16;;;;;;;5.80;2.92;;;11.30;99.90;;;;;;4955761;28;20158;-77
2023/04/29 05:35:41;;;;;;;6.60;2.80;;;11.30;99.90;;;;;;4949390;28;20031;-78
2023/04/29 05:38:07;;;;;;;4.03;2.88;;;11.40;99.90;;;;;;4952594;28;20110;-78
2023/04/29 05:40:33;;;;;;;5.95;3.00;;;11.50;99.90;;;;;;4952382;28;20145;-78
2023/04/29 05:42:58;;;;;;;3.55;2.67;;;11.60;99.90;;;;;;4953876;28;20046;-78
2023/04/29 05:45:24;;;;;;;5.05;3.53;;;11.70;99.90;;;;;;4954062;28;20065;-78
2023/04/29 05:47:50;;;;;;;4.53;3.42;;;11.70;99.90;;;;;;4953043;28;20152;-78
2023/04/29 05:50:15;;;;;;;4.53;3.85;;;11.90;99.90;;;;;;4952862;28;20050;-77
2023/04/29 05:52:41;;;;;;;5.35;3.90;;;11.90;99.90;;;;;;4951170;28;20063;-77
2023/04/29 05:55:07;;;;;;;6.95;3.92;;;12.00;99.90;;;;;;4953137;28;20050;-78
2023/04/29 05:57:32;;;;;;;8.25;4.65;;;12.10;99.90;;;;;;4954139;28;20125;-77
2023/04/29 05:59:58;;;;;;;4.45;3.80;;;12.20;99.90;;;;;;4953840;28;20523;-78
2023/04/29 06:02:24;;;;;;;8.30;4.80;;;12.30;99.90;;;;;;4951884;28;21117;-78
2023/04/29 06:04:50;;;;;;;6.30;4.65;;;12.40;99.90;;;;;;4952043;28;20037;-78
2023/04/29 06:07:16;;;;;;;5.95;4.55;;;12.40;99.90;;;;;;4953660;28;20047;-77
2023/04/29 06:09:42;;;;;;;6.38;5.50;;;12.50;99.90;;;;;;4952135;28;20909;-78
2023/04/29 06:12:08;;;;;;;6.82;5.20;;;12.60;99.90;;;;;;4953276;28;20974;-78
2023/04/29 06:14:34;;;;;;;10.10;6.00;;;12.70;99.90;;;;;;4952827;28;20030;-78
2023/04/29 06:16:59;;;;;;;6.30;5.68;;;12.80;99.90;;;;;;4952629;28;20064;-78
2023/04/29 06:19:25;;;;;;;8.13;5.97;;;12.90;99.90;;;;;;4951753;28;20127;-78
2023/04/29 06:21:51;;;;;;;6.57;5.15;;;12.90;99.90;;;;;;4953058;28;20397;-77
2023/04/29 06:24:16;;;;;;;7.05;5.30;;;13.00;99.90;;;;;;4953388;28;20042;-77
2023/04/29 06:26:42;;;;;;;6.00;4.93;;;13.00;99.90;;;;;;4952412;28;20073;-77
2023/04/29 06:29:08;;;;;;;6.82;5.32;;;13.10;99.90;;;;;;4952983;28;20038;-77
2023/04/29 06:31:34;;;;;;;8.52;5.90;;;13.10;99.90;;;;;;4952815;28;20027;-77
2023/04/29 06:33:59;;;;;;;7.68;5.40;;;13.10;99.90;;;;;;4952794;28;20483;-78
2023/04/29 06:36:26;;;;;;;7.95;5.85;;;13.20;99.90;;;;;;4952898;28;20429;-77
2023/04/29 06:38:51;;;;;;;7.32;5.60;;;13.20;99.90;;;;;;4956511;28;20043;-78
2023/04/29 06:41:17;;;;;;;6.93;5.15;;;13.30;99.90;;;;;;4954857;28;20022;-76
2023/04/29 06:43:43;;;;;;;7.30;5.38;;;13.40;99.90;;;;;;4954866;28;20035;-76
2023/04/29 06:46:09;;;;;;;6.07;5.22;;;13.50;99.90;;;;;;4956810;28;20702;-76
2023/04/29 06:48:35;;;;;;;6.60;5.47;;;13.60;99.90;;;;;;4957012;28;20035;-76
2023/04/29 06:51:00;;;;;;;5.97;4.32;;;13.70;99.90;;;;;;4955887;28;20069;-77
2023/04/29 06:53:26;;;;;;;5.25;4.35;;;13.80;99.90;;;;;;4955789;28;20114;-77
2023/04/29 06:55:52;;;;;;;5.43;4.30;;;13.90;99.90;;;;;;4956483;28;20134;-77
2023/04/29 06:58:18;;;;;;;6.13;4.38;;;14.10;99.90;;;;;;4956248;28;20027;-77
2023/04/29 07:00:45;;;;;;;4.50;3.83;;;14.20;99.90;;;;;;4955698;28;20374;-77
2023/04/29 07:03:11;;;;;;;4.85;4.10;;;14.30;99.90;;;;;;4956391;28;20090;-77
2023/04/29 07:05:41;;;;;;;7.00;4.30;;;14.40;99.90;;;;;;4956819;28;20039;-77
2023/04/29 07:08:07;;;;;;;4.63;3.67;;;14.60;99.90;;;;;;4957313;28;20082;-77
2023/04/29 07:10:33;;;;;;;5.03;3.88;;;14.80;99.90;;;;;;4956055;28;20035;-78
2023/04/29 07:12:59;;;;;;;5.35;4.18;;;14.90;99.90;;;;;;4956685;28;20419;-76
2023/04/29 07:15:26;;;;;;;6.60;4.10;;;15.00;99.90;;;;;;4957058;28;20047;-77
2023/04/29 07:17:52;;;;;;;5.60;4.20;;;15.00;99.90;;;;;;4956677;28;20130;-76
2023/04/29 07:20:18;;;;;;;9.20;3.92;;;15.00;99.90;;;;;;4955883;28;20039;-76
2023/04/29 07:22:44;;;;;;;6.03;3.95;;;15.00;99.90;;;;;;4956463;28;20381;-77
2023/04/29 07:25:09;;;;;;;7.53;4.18;;;15.10;99.90;;;;;;4956233;28;20414;-77
2023/04/29 07:27:36;;;;;;;5.28;3.60;;;15.10;99.90;;;;;;4956647;28;20039;-77
2023/04/29 07:30:02;;;;;;;5.25;3.45;;;15.20;99.90;;;;;;4955974;28;20026;-77
2023/04/29 07:32:30;;;;;;;6.90;4.38;;;15.10;99.90;;;;;;4956580;28;20039;-77
2023/04/29 07:34:56;;;;;;;5.18;3.67;;;15.20;99.90;;;;;;4957157;28;20038;-77
2023/04/29 07:37:22;;;;;;;5.20;3.42;;;15.30;99.90;;;;;;4957440;28;20027;-76
2023/04/29 07:39:47;;;;;;;3.28;2.90;;;15.40;99.90;;;;;;4954884;28;20038;-77
2023/04/29 07:42:13;;;;;;;5.93;3.35;;;15.50;99.90;;;;;;4956429;28;20030;-77
2023/04/29 07:44:38;;;;;;;7.40;3.20;;;15.40;99.90;;;;;;4956191;28;20122;-77
2023/04/29 07:47:04;;;;;;;4.68;3.05;;;15.40;99.90;;;;;;4956470;28;20040;-77
2023/04/29 07:49:30;;;;;;;5.85;3.70;;;15.40;99.90;;;;;;4954966;28;20150;-77
2023/04/29 07:51:56;;;;;;;6.63;3.05;;;15.50;99.90;;;;;;4955805;28;20035;-77
2023/04/29 07:54:22;;;;;;;3.97;3.20;;;15.60;99.90;;;;;;4955498;28;20534;-77
2023/04/29 07:56:48;;;;;;;6.72;3.10;;;15.60;99.90;;;;;;4955662;28;20051;-77
2023/04/29 07:59:14;;;;;;;5.05;3.65;;;15.60;99.90;;;;;;4955842;28;20029;-77
2023/04/29 08:01:40;;;;;;;4.97;3.25;;;15.60;99.90;;;;;;4954969;28;20061;-77
2023/04/29 08:04:06;;;;;;;3.42;3.03;;;15.70;99.90;;;;;;4955721;28;20046;-71
2023/04/29 08:06:32;;;;;;;4.18;2.55;;;15.70;99.90;;;;;;4955126;28;20332;-72
2023/04/29 08:08:58;;;;;;;3.17;2.30;;;15.80;99.90;;;;;;4954806;28;20453;-72
2023/04/29 08:11:25;;;;;;;3.90;2.13;;;15.80;99.90;;;;;;4954478;28;20029;-71
2023/04/29 08:13:50;;;;;;;3.42;2.20;;;15.80;99.90;;;;;;4954876;28;20043;-71
2023/04/29 08:16:16;;;;;;;2.85;2.20;;;15.80;99.90;;;;;;4954821;28;20047;-72
2023/04/29 08:18:42;;;;;;;2.80;2.42;;;15.90;99.90;;;;;;4958588;28;20033;-80
2023/04/29 08:21:10;;;;;;;2.80;2.22;;;15.90;99.90;;;;;;4960359;28;20035;-79
2023/04/29 08:23:36;;;;;;;3.88;2.28;;;16.10;99.90;;;;;;4958329;28;20080;-78
2023/04/29 08:26:02;;;;;;;3.60;2.40;;;16.10;99.90;;;;;;4955645;28;20161;-83
2023/04/29 08:28:27;;;;;;;3.45;2.17;;;16.10;99.90;;;;;;4956156;28;20113;-78
2023/04/29 08:30:54;;;;;;;3.85;1.95;;;16.20;99.90;;;;;;4955727;28;20745;-78
2023/04/29 08:33:19;;;;;;;4.35;1.98;;;16.30;99.90;;;;;;4956736;28;20035;-77
2023/04/29 08:35:45;;;;;;;3.78;1.90;;;16.60;99.90;;;;;;4955644;28;20085;-78
2023/04/29 08:38:10;;;;;;;4.72;1.80;;;16.70;99.90;;;;;;4956006;28;20036;-77
2023/04/29 08:40:42;;;;;;;4.97;2.10;;;16.80;99.90;;;;;;4954928;28;20421;-78
2023/04/29 08:43:09;;;;;;;2.25;1.83;;;16.90;99.90;;;;;;4956783;28;20106;-78
2023/04/29 08:45:35;;;;;;;2.92;1.73;;;16.90;99.90;;;;;;4955711;28;20042;-78
2023/04/29 08:48:06;;;;;;;3.67;1.83;;;16.90;99.90;;;;;;4957271;28;20030;-78
2023/04/29 08:50:37;;;;;;;3.38;1.73;;;16.90;99.90;;;;;;4956382;28;20031;-78
2023/04/29 08:53:05;;;;;;;4.43;2.17;;;16.70;99.90;;;;;;4957115;28;20041;-77
2023/04/29 08:55:32;;;;;;;3.42;1.75;;;16.60;99.90;;;;;;4954451;28;20047;-72
2023/04/29 08:57:58;;;;;;;4.25;2.03;;;16.60;99.90;;;;;;4960997;28;20031;-81
2023/04/29 09:00:24;;;;;;;4.53;1.70;;;16.80;99.90;;;;;;4962038;28;20123;-80
2023/04/29 09:02:55;;;;;;;2.50;1.80;;;16.90;99.90;;;;;;4961281;28;20388;-82
2023/04/29 09:05:21;;;;;;;4.28;2.17;;;16.90;99.90;;;;;;4961395;28;20363;-81
2023/04/29 09:07:49;;;;;;;2.10;1.60;;;16.80;99.90;;;;;;4959943;28;20033;-80
2023/04/29 09:10:15;;;;;;;3.05;1.60;;;16.80;99.90;;;;;;4959916;28;20050;-80
2023/04/29 09:12:41;;;;;;;3.88;1.65;;;16.70;99.90;;;;;;4959937;28;20038;-81
2023/04/29 09:15:07;;;;;;;2.30;1.73;;;16.70;99.90;;;;;;4960239;28;20035;-81
2023/04/29 09:17:44;;;;;;;3.20;1.73;;;16.70;99.90;;;;;;4960390;28;20031;-80
2023/04/29 09:20:19;;;;;;;4.30;2.00;;;16.60;99.90;;;;;;4954068;28;20428;-73
2023/04/29 09:22:52;;;;;;;2.78;1.52;;;16.60;99.90;;;;;;4954581;28;20039;-73
2023/04/29 09:25:18;;;;;;;2.45;1.70;;;16.70;99.90;;;;;;4953512;28;20444;-73
2023/04/29 09:27:43;;;;;;;3.25;1.70;;;16.90;99.90;;;;;;4953647;28;20121;-73
2023/04/29 09:30:11;;;;;;;2.80;1.80;;;17.20;99.90;;;;;;4953894;28;20034;-73
2023/04/29 09:32:37;;;;;;;3.83;1.75;;;17.40;99.90;;;;;;4953158;28;20487;-73
2023/04/29 09:35:28;;;;;;;4.10;1.40;;;17.70;99.90;;;;;;4954314;28;20041;-88
2023/04/29 09:38:08;;;;;;;3.38;1.52;;;18.00;99.90;;;;;;4951406;28;20066;-78
2023/04/29 09:40:34;;;;;;;1.92;1.40;;;18.30;99.90;;;;;;4955122;28;20050;-78
2023/04/29 09:43:00;;;;;;;3.03;1.40;;;18.60;99.90;;;;;;4956904;28;20164;-82
2023/04/29 09:45:33;;;;;;;2.88;1.50;;;18.80;99.90;;;;;;4960169;28;20169;-79
2023/04/29 09:48:03;;;;;;;3.78;1.40;;;19.10;99.90;;;;;;4958776;28;20117;-82
2023/04/29 09:50:30;;;;;;;3.28;1.40;;;19.40;99.90;;;;;;4959861;28;20034;-82
2023/04/29 09:52:56;;;;;;;3.03;1.30;;;19.80;99.90;;;;;;4960904;28;20035;-82
2023/04/29 09:55:21;;;;;;;2.35;1.15;;;19.80;99.90;;;;;;4960114;28;20039;-82
2023/04/29 09:57:47;;;;;;;2.78;1.50;;;19.90;99.90;;;;;;4958861;28;20039;-83
2023/04/29 10:00:14;;;;;;;2.35;1.95;;;19.60;99.90;;;;;;4958832;28;20065;-82
2023/04/29 10:02:48;;;;;;;2.90;2.05;;;19.30;99.90;;;;;;4961014;28;20035;-83
2023/04/29 10:05:14;;;;;;;3.17;1.90;;;18.80;99.90;;;;;;4956127;28;20027;-83
2023/04/29 10:07:40;;;;;;;4.82;2.00;;;18.40;99.90;;;;;;4956492;28;20030;-83
2023/04/29 10:10:08;;;;;;;5.70;2.03;;;18.10;99.90;;;;;;4954553;28;20499;-80
2023/04/29 10:12:38;;;;;;;4.35;2.45;;;18.00;99.90;;;;;;4955629;28;20451;-80
2023/04/29 10:15:26;;;;;;;5.40;2.00;;;18.20;99.90;;;;;;4958255;28;20542;-80
2023/04/29 10:17:58;;;;;;;3.58;2.30;;;18.40;99.90;;;;;;4958777;28;20057;-81
2023/04/29 10:20:25;;;;;;;2.65;1.98;;;18.70;99.90;;;;;;4960424;28;20053;-81
2023/04/29 10:22:53;;;;;;;3.20;2.30;;;18.80;99.90;;;;;;4958167;28;20037;-71
2023/04/29 10:25:20;;;;;;;4.07;1.90;;;18.90;99.90;;;;;;4952573;28;20027;-73
2023/04/29 10:27:47;;;;;;;2.05;1.50;;;19.20;99.90;;;;;;4953627;28;20043;-74
2023/04/29 10:30:15;;;;;;;2.25;1.60;;;19.50;99.90;;;;;;4952328;28;20026;-74
2023/04/29 10:32:41;;;;;;;4.20;2.65;;;19.60;99.90;;;;;;4953212;28;20213;-74
2023/04/29 10:35:08;;;;;;;4.63;1.70;;;19.50;99.90;;;;;;4952447;28;20494;-74
2023/04/29 10:37:37;;;;;;;3.00;1.50;;;19.50;99.90;;;;;;4953909;28;20043;-74
2023/04/29 10:40:14;;;;;;;2.95;1.70;;;19.50;99.90;;;;;;4952846;28;20023;-74
2023/04/29 10:42:49;;;;;;;3.92;1.77;;;19.50;99.90;;;;;;4952990;28;20153;-74
2023/04/29 10:45:28;;;;;;;2.90;1.58;;;19.60;99.90;;;;;;4952297;28;20680;-73
2023/04/29 10:48:09;;;;;;;3.47;1.40;;;19.90;99.90;;;;;;4953424;28;20045;-73
2023/04/29 10:51:00;;;;;;;3.70;1.30;;;20.00;99.90;;;;;;4952783;28;20034;-73
2023/04/29 10:53:27;;;;;;;3.83;1.40;;;20.00;99.90;;;;;;4953379;28;20063;-73
2023/04/29 10:55:55;;;;;;;3.10;1.60;;;19.80;99.90;;;;;;4953420;28;20046;-73
2023/04/29 10:58:39;;;;;;;2.08;1.50;;;19.60;99.90;;;;;;4952639;28;20039;-73
2023/04/29 11:01:06;;;;;;;4.28;1.60;;;19.60;99.90;;;;;;4952938;28;20034;-72
2023/04/29 11:03:48;;;;;;;3.25;1.63;;;19.80;99.90;;;;;;4952523;28;20488;-72
2023/04/29 11:06:14;;;;;;;2.10;1.20;;;19.90;99.90;;;;;;4953020;28;20035;-72
2023/04/29 11:08:41;;;;;;;2.17;1.20;;;20.00;99.90;;;;;;4953403;28;20069;-73
2023/04/29 11:11:07;;;;;;;3.15;1.30;;;20.60;99.90;;;;;;4951976;28;20075;-72
2023/04/29 11:13:39;;;;;;;3.45;1.30;;;21.00;99.90;;;;;;4952739;28;20625;-72
2023/04/29 11:16:05;;;;;;;4.53;1.48;;;21.00;99.90;;;;;;4952599;28;20042;-72
2023/04/29 11:18:33;;;;;;;2.88;1.40;;;20.60;99.90;;;;;;4952818;28;20376;-72
2023/04/29 11:21:04;;;;;;;1.80;1.20;;;20.10;99.90;;;;;;4952322;28;20154;-72
2023/04/29 11:23:33;;;;;;;1.70;1.00;;;19.80;99.90;;;;;;4954343;28;20824;-72
2023/04/29 11:26:00;;;;;;;3.53;1.33;;;19.70;99.90;;;;;;4956242;28;20920;-71
2023/04/29 11:28:27;;;;;;;4.25;1.20;;;19.50;99.90;;;;;;4956009;28;20491;-71
2023/04/29 11:30:53;;;;;;;2.13;1.20;;;19.50;99.90;;;;;;4955193;28;20038;-71
2023/04/29 11:33:22;;;;;;;1.77;1.17;;;19.70;99.90;;;;;;4955981;28;20019;-74
2023/04/29 11:35:48;;;;;;;5.15;1.35;;;20.10;99.90;;;;;;4956012;28;20097;-75
2023/04/29 11:38:14;;;;;;;1.58;1.02;;;19.90;99.90;;;;;;4956196;28;20153;-74
2023/04/29 11:40:48;;;;;;;2.30;1.00;;;19.80;99.90;;;;;;4955467;28;20392;-74
2023/04/29 11:43:17;;;;;;;;;;;19.80;99.90;;;;;;4956251;28;20391;-74
2023/04/29 11:45:46;;;;;;;2.28;1.00;;;19.70;99.90;;;;;;4955666;28;19918;-75
2023/04/29 11:48:23;;;;;;;1.67;1.00;;;19.50;99.90;;;;;;4955584;28;20110;-73
2023/04/29 11:50:59;;;;;;;2.58;0.80;;;19.30;99.90;;;;;;4954926;28;20154;-74
2023/04/29 11:53:26;;;;;;;1.10;1.00;;;19.30;99.90;;;;;;4956070;28;20027;-74
2023/04/29 11:55:52;;;;;;;2.95;1.20;;;19.50;99.90;;;;;;4954625;28;20420;-73
2023/04/29 11:58:22;;;;;;;1.20;1.10;;;19.90;99.90;;;;;;4955690;28;20038;-73
2023/04/29 12:00:48;;;;;;;4.50;1.30;;;20.20;99.90;;;;;;4955328;28;20416;-75
2023/04/29 12:03:15;;;;;;;1.63;1.27;;;20.10;99.90;;;;;;4955361;28;20090;-72
2023/04/29 12:05:53;;;;;;;3.03;1.65;;;20.10;99.90;;;;;;4956362;28;20027;-73
2023/04/29 12:08:24;;;;;;;2.28;1.35;;;19.70;99.90;;;;;;4954772;28;20054;-73
2023/04/29 12:10:51;;;;;;;3.65;1.38;;;19.40;99.90;;;;;;4954705;28;20634;-74
2023/04/29 12:13:18;;;;;;;3.45;1.27;;;19.20;99.90;;;;;;4954663;28;20818;-74
2023/04/29 12:15:49;;;;;;;2.42;1.38;;;19.30;99.90;;;;;;4954806;28;20046;-74
2023/04/29 12:18:17;;;;;;;1.48;1.10;;;19.50;99.90;;;;;;4954884;28;20023;-73
2023/04/29 12:20:43;;;;;;;2.75;1.10;;;19.90;99.90;;;;;;4954545;28;20135;-72
2023/04/29 12:23:17;;;;;;;1.73;1.13;;;20.30;99.90;;;;;;4955749;28;20109;-72
2023/04/29 12:25:49;;;;;;;1.58;1.00;;;20.60;99.90;;;;;;4955084;28;20023;-76
2023/04/29 12:28:15;;;;;;;3.15;1.15;;;20.60;99.90;;;;;;4954270;28;20070;-72
2023/04/29 12:30:42;;;;;;;1.80;1.27;;;20.60;99.90;;;;;;4954936;28;20031;-72
2023/04/29 12:33:08;;;;;;;2.53;1.40;;;20.70;99.90;;;;;;4955189;28;20043;-72
2023/04/29 12:35:34;;;;;;;1.58;0.98;;;20.80;99.90;;;;;;4954031;28;20102;-72
2023/04/29 12:38:01;;;;;;;3.15;1.17;;;20.90;99.90;;;;;;4954913;28;20492;-72
2023/04/29 12:40:27;;;;;;;1.65;0.93;;;21.00;99.90;;;;;;4954151;28;20043;-72
2023/04/29 12:42:53;;;;;;;3.05;1.05;;;21.10;99.90;;;;;;4954699;28;20439;-72
2023/04/29 12:45:26;;;;;;;1.30;1.10;;;20.80;99.90;;;;;;4954919;28;20073;-73
2023/04/29 12:47:52;;;;;;;1.77;0.90;;;20.60;99.90;;;;;;4954843;28;20113;-72
2023/04/29 12:50:18;;;;;;;3.95;0.95;;;20.70;99.90;;;;;;4954014;28;20395;-72
2023/04/29 12:52:44;;;;;;;3.88;1.10;;;20.90;99.90;;;;;;4954458;28;20035;-72